createdAt,value
2022-07-25T00:00:05.381Z,56.26
2022-07-25T00:02:52.418Z,56.30
2022-07-25T00:05:19.495Z,56.50
2022-07-25T00:07:46.491Z,56.35
2022-07-25T00:10:13.388Z,56.20
2022-07-25T00:12:40.543Z,56.57
2022-07-25T00:15:07.900Z,56.39
2022-07-25T00:17:34.870Z,56.56
2022-07-25T00:20:02.142Z,55.73
2022-07-25T00:22:31.358Z,55.33
2022-07-25T00:24:58.356Z,55.98
2022-07-25T00:27:25.792Z,54.85
2022-07-25T00:29:52.696Z,55.25
2022-07-25T00:32:19.861Z,55.21
2022-07-25T00:34:47.203Z,54.66
2022-07-25T00:37:14.415Z,53.43
2022-07-25T00:39:41.513Z,54.90
2022-07-25T00:42:08.779Z,56.27
2022-07-25T00:44:35.881Z,56.87
2022-07-25T00:47:03.419Z,56.80
2022-07-25T00:49:30.574Z,57.73
2022-07-25T00:51:58.683Z,57.60
2022-07-25T00:54:25.651Z,57.00
2022-07-25T00:56:52.960Z,56.40
2022-07-25T00:59:19.974Z,56.81
2022-07-25T01:01:48.656Z,56.38
2022-07-25T01:04:16.815Z,56.11
2022-07-25T01:06:44.179Z,56.66
2022-07-25T01:09:11.419Z,56.16
2022-07-25T01:11:39.139Z,56.53
2022-07-25T01:14:06.858Z,56.74
2022-07-25T01:16:33.972Z,57.03
2022-07-25T01:19:01.310Z,57.26
2022-07-25T01:21:28.246Z,57.11
2022-07-25T01:23:55.194Z,57.07
2022-07-25T01:26:22.514Z,56.92
2022-07-25T01:28:49.417Z,56.67
2022-07-25T01:31:16.323Z,57.27
2022-07-25T01:33:43.791Z,57.13
2022-07-25T01:36:11.126Z,56.88
2022-07-25T01:38:37.985Z,55.70
2022-07-25T01:41:05.190Z,56.66
2022-07-25T01:43:32.052Z,56.46
2022-07-25T01:45:59.021Z,56.28
2022-07-25T01:48:26.372Z,56.09
2022-07-25T01:50:53.613Z,55.13
2022-07-25T01:53:21.384Z,53.30
2022-07-25T01:55:48.945Z,53.32
2022-07-25T01:58:15.808Z,52.37
2022-07-25T02:00:44.586Z,51.68
2022-07-25T02:03:30.108Z,52.25
2022-07-25T02:06:01.523Z,51.74
2022-07-25T02:08:29.406Z,51.55
2022-07-25T02:10:57.829Z,50.89
2022-07-25T02:13:25.116Z,51.35
2022-07-25T02:15:52.496Z,51.41
2022-07-25T02:18:19.712Z,51.82
2022-07-25T02:20:46.696Z,51.82
2022-07-25T02:23:13.909Z,51.57
2022-07-25T02:25:40.842Z,52.35
2022-07-25T02:28:07.810Z,52.04
2022-07-25T02:30:38.213Z,51.71
2022-07-25T02:33:05.402Z,51.87
2022-07-25T02:35:32.670Z,52.29
2022-07-25T02:37:59.959Z,52.34
2022-07-25T02:40:27.618Z,52.73
2022-07-25T02:42:54.544Z,52.83
2022-07-25T02:45:21.767Z,52.65
2022-07-25T02:47:48.641Z,51.97
2022-07-25T02:50:15.578Z,52.53
2022-07-25T02:52:43.271Z,52.73
2022-07-25T02:55:10.419Z,52.84
2022-07-25T02:57:37.763Z,52.87
2022-07-25T03:00:05.599Z,52.90
2022-07-25T03:02:32.571Z,53.04
2022-07-25T03:04:59.473Z,53.10
2022-07-25T03:07:26.681Z,52.53
2022-07-25T03:09:53.763Z,53.01
2022-07-25T03:12:20.746Z,52.71
2022-07-25T03:14:47.926Z,53.05
2022-07-25T03:17:14.981Z,53.28
2022-07-25T03:19:41.891Z,53.18
2022-07-25T03:22:09.020Z,53.78
2022-07-25T03:24:36.095Z,53.38
2022-07-25T03:27:03.427Z,53.15
2022-07-25T03:29:30.582Z,53.74
2022-07-25T03:31:58.015Z,53.49
2022-07-25T03:34:25.484Z,52.79
2022-07-25T03:36:52.707Z,52.69
2022-07-25T03:39:20.784Z,53.03
2022-07-25T03:41:48.137Z,52.58
2022-07-25T03:44:15.330Z,52.79
2022-07-25T03:46:42.191Z,52.99
2022-07-25T03:49:09.178Z,52.43
2022-07-25T03:51:36.394Z,52.94
2022-07-25T03:54:04.340Z,52.69
2022-07-25T03:56:43.354Z,52.28
2022-07-25T03:59:13.693Z,52.39
2022-07-25T04:01:41.030Z,52.32
2022-07-25T04:04:08.323Z,52.44
2022-07-25T04:06:36.178Z,52.36
2022-07-25T04:09:03.325Z,51.99
2022-07-25T04:11:31.418Z,52.11
2022-07-25T04:13:58.997Z,51.99
2022-07-25T04:16:27.844Z,52.22
2022-07-25T04:18:55.362Z,51.45
2022-07-25T04:21:23.951Z,52.75
2022-07-25T04:23:51.038Z,52.43
2022-07-25T04:26:18.164Z,52.33
2022-07-25T04:28:45.287Z,52.12
2022-07-25T04:31:12.307Z,52.02
2022-07-25T04:33:40.116Z,51.74
2022-07-25T04:36:07.439Z,51.88
2022-07-25T04:38:34.818Z,52.20
2022-07-25T04:41:02.037Z,52.02
2022-07-25T04:43:29.307Z,51.96
2022-07-25T04:45:56.459Z,51.46
2022-07-25T04:48:23.464Z,51.14
2022-07-25T04:50:50.790Z,51.03
2022-07-25T04:53:17.874Z,51.13
2022-07-25T04:55:44.770Z,51.30
2022-07-25T04:58:11.926Z,50.44
2022-07-25T05:00:38.948Z,50.28
2022-07-25T05:03:05.858Z,50.82
2022-07-25T05:05:33.012Z,49.91
2022-07-25T05:08:00.399Z,50.62
2022-07-25T05:10:28.305Z,49.85
2022-07-25T05:12:56.496Z,49.02
2022-07-25T05:15:23.403Z,48.36
2022-07-25T05:17:50.316Z,48.14
2022-07-25T05:20:17.524Z,48.04
2022-07-25T05:22:44.806Z,48.61
2022-07-25T05:25:12.025Z,48.08
2022-07-25T05:27:39.554Z,48.31
2022-07-25T05:30:07.142Z,47.87
2022-07-25T05:32:34.103Z,47.44
2022-07-25T05:35:01.187Z,46.55
2022-07-25T05:37:28.278Z,45.24
2022-07-25T05:39:55.116Z,44.85
2022-07-25T05:42:22.585Z,44.34
2022-07-25T05:44:49.583Z,43.29
2022-07-25T05:47:16.477Z,42.28
2022-07-25T05:49:45.089Z,38.78
2022-07-25T05:52:13.263Z,35.64
2022-07-25T05:54:40.741Z,33.02
2022-07-25T05:57:07.946Z,31.35
2022-07-25T05:59:34.944Z,29.01
2022-07-25T06:02:02.569Z,28.37
2022-07-25T06:04:30.297Z,27.78
2022-07-25T06:06:57.313Z,26.41
2022-07-25T06:09:24.304Z,24.72
2022-07-25T06:12:00.423Z,24.67
2022-07-25T06:14:28.701Z,23.78
2022-07-25T06:16:55.864Z,22.96
2022-07-25T06:19:23.247Z,22.26
2022-07-25T06:21:50.564Z,21.58
2022-07-25T06:24:17.910Z,20.82
2022-07-25T06:26:44.966Z,21.41
2022-07-25T06:29:12.545Z,21.29
2022-07-25T06:31:40.166Z,21.47
2022-07-25T06:34:08.786Z,20.27
2022-07-25T06:36:36.325Z,20.11
2022-07-25T06:39:04.282Z,19.23
2022-07-25T06:41:31.173Z,19.11
2022-07-25T06:43:58.074Z,18.96
2022-07-25T06:46:26.834Z,19.10
2022-07-25T06:48:53.778Z,19.41
2022-07-25T06:51:23.300Z,19.37
2022-07-25T06:53:50.540Z,18.57
2022-07-25T06:56:17.888Z,19.15
2022-07-25T06:58:45.523Z,19.15
2022-07-25T07:01:12.806Z,18.96
2022-07-25T07:03:40.545Z,18.61
2022-07-25T07:06:09.501Z,18.69
2022-07-25T07:08:36.978Z,18.29
2022-07-25T07:11:04.469Z,17.86
2022-07-25T07:13:31.642Z,17.79
2022-07-25T07:15:59.020Z,17.74
2022-07-25T07:18:26.385Z,16.79
2022-07-25T07:20:53.743Z,17.64
2022-07-25T07:23:20.749Z,17.33
2022-07-25T07:25:47.848Z,16.25
2022-07-25T07:28:14.853Z,16.55
2022-07-25T07:33:29.279Z,15.87
2022-07-25T07:35:58.244Z,15.14
2022-07-25T07:38:25.647Z,15.06
2022-07-25T07:40:52.955Z,15.05
2022-07-25T07:43:20.323Z,15.32
2022-07-25T07:45:47.421Z,15.84
2022-07-25T07:48:14.434Z,15.86
2022-07-25T07:50:41.834Z,15.66
2022-07-25T07:53:08.951Z,16.06
2022-07-25T07:55:45.560Z,17.37
2022-07-25T07:58:15.991Z,15.96
2022-07-25T08:00:44.062Z,16.39
2022-07-25T08:03:11.328Z,16.58
2022-07-25T08:05:40.830Z,17.35
2022-07-25T08:08:09.577Z,17.38
2022-07-25T08:10:37.640Z,16.69
2022-07-25T08:13:14.431Z,16.99
2022-07-25T08:15:41.964Z,16.60
2022-07-25T08:18:16.872Z,16.36
2022-07-25T08:20:45.376Z,16.55
2022-07-25T08:23:13.064Z,17.02
2022-07-25T08:25:40.339Z,16.77
2022-07-25T08:28:07.492Z,17.34
2022-07-25T08:30:36.092Z,17.69
2022-07-25T08:33:04.391Z,16.88
2022-07-25T08:35:31.582Z,18.30
2022-07-25T08:37:59.949Z,17.47
2022-07-25T08:40:28.533Z,17.68
2022-07-25T08:42:56.513Z,17.66
2022-07-25T08:45:24.641Z,18.37
2022-07-25T08:47:52.196Z,17.28
2022-07-25T08:50:20.824Z,17.32
2022-07-25T08:52:48.895Z,16.76
2022-07-25T08:55:17.403Z,16.95
2022-07-25T08:57:44.518Z,17.24
2022-07-25T09:00:13.002Z,16.96
2022-07-25T09:02:40.236Z,17.38
2022-07-25T09:05:07.651Z,17.34
2022-07-25T09:07:34.749Z,17.95
2022-07-25T09:10:14.007Z,18.22
2022-07-25T09:12:41.747Z,18.19
2022-07-25T09:15:09.052Z,18.09
2022-07-25T09:17:38.552Z,17.46
2022-07-25T09:20:08.846Z,16.63
2022-07-25T09:22:43.538Z,17.48
2022-07-25T09:25:27.385Z,17.49
2022-07-25T09:27:54.398Z,17.73
2022-07-25T09:30:21.453Z,17.28
2022-07-25T09:32:48.348Z,17.16
2022-07-25T09:35:15.700Z,17.63
2022-07-25T09:37:42.795Z,17.71
2022-07-25T09:40:14.787Z,16.60
2022-07-25T09:42:43.072Z,18.59
2022-07-25T09:45:12.823Z,17.64
2022-07-25T09:47:51.388Z,17.73
2022-07-25T09:50:19.125Z,17.76
2022-07-25T09:52:46.750Z,16.52
2022-07-25T09:55:16.963Z,16.37
2022-07-25T09:57:45.226Z,16.86
2022-07-25T10:00:17.473Z,16.61
2022-07-25T10:02:51.341Z,15.67
2022-07-25T10:05:20.956Z,15.30
2022-07-25T10:07:49.703Z,15.48
2022-07-25T10:10:21.913Z,15.18
2022-07-25T10:12:59.146Z,14.72
2022-07-25T10:15:26.077Z,13.80
2022-07-25T10:18:02.950Z,13.72
2022-07-25T10:20:30.096Z,14.61
2022-07-25T10:22:58.040Z,14.75
2022-07-25T10:25:25.810Z,14.47
2022-07-25T10:28:00.246Z,13.39
2022-07-25T10:30:28.792Z,14.53
2022-07-25T10:32:57.104Z,14.59
2022-07-25T10:35:25.894Z,14.30
2022-07-25T10:37:54.378Z,14.49
2022-07-25T10:40:28.679Z,14.30
2022-07-25T10:43:02.760Z,13.91
2022-07-25T10:45:59.151Z,13.60
2022-07-25T10:48:27.829Z,13.40
2022-07-25T10:51:00.548Z,13.44
2022-07-25T10:53:28.714Z,14.21
2022-07-25T10:56:05.820Z,14.59
2022-07-25T10:58:59.974Z,13.28
2022-07-25T11:01:28.648Z,12.99
2022-07-25T11:03:57.011Z,13.48
2022-07-25T11:06:40.105Z,12.43
2022-07-25T11:09:18.626Z,12.31
2022-07-25T11:11:51.349Z,13.84
2022-07-25T11:14:19.555Z,13.54
2022-07-25T11:16:47.422Z,13.72
2022-07-25T11:19:17.302Z,13.14
2022-07-25T11:21:45.639Z,13.10
2022-07-25T11:24:12.911Z,14.62
2022-07-25T11:26:50.134Z,13.56
2022-07-25T11:29:20.889Z,13.30
2022-07-25T11:31:54.451Z,13.08
2022-07-25T11:34:23.397Z,13.85
2022-07-25T11:36:51.039Z,14.25
2022-07-25T11:39:19.014Z,15.08
2022-07-25T11:41:46.400Z,14.93
2022-07-25T11:44:13.287Z,14.27
2022-07-25T11:46:41.706Z,14.31
2022-07-25T11:49:09.481Z,14.74
2022-07-25T11:51:37.791Z,15.61
2022-07-25T11:54:11.226Z,13.57
2022-07-25T11:56:42.997Z,14.86
2022-07-25T11:59:11.174Z,14.11
2022-07-25T12:01:41.941Z,14.14
2022-07-25T12:04:09.039Z,14.79
2022-07-25T12:06:35.912Z,15.46
2022-07-25T12:09:18.829Z,16.58
2022-07-25T12:11:47.963Z,17.17
2022-07-25T12:14:15.069Z,17.61
2022-07-25T12:16:42.131Z,17.59
2022-07-25T12:19:10.465Z,17.64
2022-07-25T12:21:37.615Z,18.71
2022-07-25T12:24:04.734Z,19.59
2022-07-25T12:26:31.883Z,19.64
2022-07-25T12:28:58.702Z,19.88
2022-07-25T12:31:28.747Z,19.40
2022-07-25T12:33:56.183Z,19.97
2022-07-25T12:36:23.125Z,19.44
2022-07-25T12:38:50.002Z,19.56
2022-07-25T12:41:22.812Z,20.08
2022-07-25T12:43:49.959Z,19.59
2022-07-25T12:46:17.211Z,19.83
2022-07-25T12:48:44.611Z,20.53
2022-07-25T12:51:11.471Z,20.24
2022-07-25T12:53:42.295Z,20.46
2022-07-25T12:56:09.963Z,20.13
2022-07-25T12:58:37.552Z,20.71
2022-07-25T13:01:05.918Z,19.99
2022-07-25T13:03:33.581Z,21.16
2022-07-25T13:06:00.541Z,20.18
2022-07-25T13:08:27.673Z,19.31
2022-07-25T13:10:54.724Z,20.26
2022-07-25T13:13:21.513Z,21.43
2022-07-25T13:15:48.367Z,21.04
2022-07-25T13:18:15.510Z,20.59
2022-07-25T13:20:42.346Z,21.23
2022-07-25T13:23:09.139Z,21.43
2022-07-25T13:25:36.631Z,20.47
2022-07-25T13:28:10.770Z,20.40
2022-07-25T13:30:38.737Z,20.53
2022-07-25T13:33:05.703Z,20.66
2022-07-25T13:35:38.699Z,20.22
2022-07-25T13:38:06.467Z,19.91
2022-07-25T13:40:33.791Z,20.83
2022-07-25T13:43:00.598Z,21.12
2022-07-25T13:45:27.787Z,20.44
2022-07-25T13:48:26.814Z,20.45
2022-07-25T13:50:41.658Z,20.65
2022-07-25T13:53:08.775Z,20.99
2022-07-25T13:55:35.899Z,20.99
2022-07-25T13:58:02.936Z,21.18
2022-07-25T14:00:29.763Z,21.38
2022-07-25T14:02:56.633Z,20.80
2022-07-25T14:05:24.472Z,21.76
2022-07-25T14:07:51.441Z,21.52
2022-07-25T14:10:18.498Z,22.24
2022-07-25T14:12:45.982Z,22.12
2022-07-25T14:15:12.940Z,21.76
2022-07-25T14:17:39.922Z,22.05
2022-07-25T14:20:07.809Z,21.40
2022-07-25T14:22:34.667Z,21.24
2022-07-25T14:25:01.733Z,21.22
2022-07-25T14:27:28.858Z,21.43
2022-07-25T14:29:55.630Z,21.58
2022-07-25T14:32:23.117Z,22.10
2022-07-25T14:34:51.082Z,21.28
2022-07-25T14:37:19.210Z,21.44
2022-07-25T14:39:46.290Z,22.17
2022-07-25T14:42:13.819Z,22.03
2022-07-25T14:44:40.831Z,21.69
2022-07-25T14:47:11.972Z,22.06
2022-07-25T14:49:40.282Z,22.24
2022-07-25T14:52:07.212Z,21.98
2022-07-25T14:54:34.209Z,22.14
2022-07-25T14:57:01.323Z,21.50
2022-07-25T14:59:30.116Z,21.38
2022-07-25T15:01:57.011Z,21.54
2022-07-25T15:04:25.642Z,21.36
2022-07-25T15:06:53.311Z,21.30
2022-07-25T15:09:20.741Z,20.84
2022-07-25T15:11:48.383Z,21.51
2022-07-25T15:14:15.618Z,21.52
2022-07-25T15:16:43.531Z,20.56
2022-07-25T15:19:16.324Z,20.49
2022-07-25T15:21:44.707Z,21.37
2022-07-25T15:24:12.026Z,21.15
2022-07-25T15:26:38.954Z,21.26
2022-07-25T15:29:10.861Z,20.89
2022-07-25T15:31:38.674Z,22.43
2022-07-25T15:34:05.811Z,22.46
2022-07-25T15:36:32.725Z,21.80
2022-07-25T15:39:00.141Z,22.21
2022-07-25T15:41:27.001Z,22.54
2022-07-25T15:43:54.336Z,22.66
2022-07-25T15:46:21.779Z,23.17
2022-07-25T15:48:49.113Z,22.60
2022-07-25T15:51:16.931Z,23.18
2022-07-25T15:53:44.263Z,22.94
2022-07-25T15:56:14.040Z,22.61
2022-07-25T15:58:40.889Z,23.51
2022-07-25T16:01:08.210Z,23.10
2022-07-25T16:03:35.168Z,22.96
2022-07-25T16:06:04.343Z,23.27
2022-07-25T16:08:32.371Z,23.29
2022-07-25T16:11:00.230Z,22.91
2022-07-25T16:13:27.336Z,22.65
2022-07-25T16:15:54.580Z,23.20
2022-07-25T16:18:21.611Z,23.07
2022-07-25T16:20:48.640Z,23.80
2022-07-25T16:23:15.894Z,23.64
2022-07-25T16:25:43.297Z,23.70
2022-07-25T16:28:10.391Z,23.74
2022-07-25T16:30:37.529Z,23.46
2022-07-25T16:33:04.515Z,23.38
2022-07-25T16:35:31.769Z,23.47
2022-07-25T16:37:59.099Z,23.18
2022-07-25T16:40:30.728Z,22.84
2022-07-25T16:42:59.821Z,23.50
2022-07-25T16:45:27.524Z,23.08
2022-07-25T16:47:54.423Z,23.32
2022-07-25T16:50:22.011Z,22.54
2022-07-25T16:52:49.240Z,23.08
2022-07-25T16:55:16.393Z,23.81
2022-07-25T16:57:43.727Z,23.74
2022-07-25T17:00:11.227Z,23.29
2022-07-25T17:02:38.407Z,23.67
2022-07-25T17:05:05.716Z,23.74
2022-07-25T17:07:32.991Z,23.60
2022-07-25T17:10:00.132Z,23.65
2022-07-25T17:12:27.302Z,23.48
2022-07-25T17:14:54.627Z,24.05
2022-07-25T17:17:21.731Z,23.74
2022-07-25T17:19:48.671Z,23.77
2022-07-25T17:22:16.103Z,23.74
2022-07-25T17:24:43.177Z,24.04
2022-07-25T17:27:10.215Z,23.96
2022-07-25T17:29:37.832Z,23.83
2022-07-25T17:32:06.145Z,24.51
2022-07-25T17:34:33.201Z,24.02
2022-07-25T17:37:03.519Z,24.29
2022-07-25T17:39:31.136Z,24.03
2022-07-25T17:41:58.140Z,24.45
2022-07-25T17:44:25.951Z,24.61
2022-07-25T17:46:54.084Z,24.87
2022-07-25T17:49:21.983Z,24.86
2022-07-25T17:51:49.904Z,24.44
2022-07-25T17:54:17.160Z,25.06
2022-07-25T17:56:45.669Z,25.04
2022-07-25T17:59:13.910Z,24.99
2022-07-25T18:01:41.222Z,24.85
2022-07-25T18:04:08.951Z,25.08
2022-07-25T18:06:36.911Z,24.83
2022-07-25T18:09:04.334Z,25.01
2022-07-25T18:11:31.674Z,25.44
2022-07-25T18:13:59.939Z,25.80
2022-07-25T18:16:27.118Z,26.17
2022-07-25T18:18:54.618Z,27.96
2022-07-25T18:21:22.278Z,33.01
2022-07-25T18:23:49.730Z,37.45
2022-07-25T18:26:18.232Z,40.58
2022-07-25T18:28:46.158Z,42.40
2022-07-25T18:31:13.164Z,44.95
2022-07-25T18:33:40.567Z,45.43
2022-07-25T18:36:08.151Z,45.64
2022-07-25T18:38:36.357Z,46.64
2022-07-25T18:41:28.104Z,48.33
2022-07-25T18:43:53.233Z,51.60
2022-07-25T18:46:20.596Z,56.06
2022-07-25T18:48:47.876Z,58.69
2022-07-25T18:51:15.449Z,62.44
2022-07-25T18:53:47.395Z,65.03
2022-07-25T18:56:16.085Z,68.13
2022-07-25T18:58:44.612Z,69.14
2022-07-25T19:01:13.608Z,68.74
2022-07-25T19:03:41.168Z,69.85
2022-07-25T19:06:09.373Z,72.14
2022-07-25T19:08:36.873Z,74.68
2022-07-25T19:11:03.856Z,77.55
2022-07-25T19:13:48.807Z,78.39
2022-07-25T19:16:17.385Z,80.50
2022-07-25T19:18:45.392Z,80.38
2022-07-25T19:21:12.587Z,78.17
2022-07-25T19:23:40.070Z,78.58
2022-07-25T19:26:07.718Z,77.76
2022-07-25T19:28:38.326Z,77.04
2022-07-25T19:31:05.621Z,74.50
2022-07-25T19:33:36.215Z,75.03
2022-07-25T19:36:04.518Z,75.07
2022-07-25T19:38:32.878Z,74.42
2022-07-25T19:41:01.059Z,73.30
2022-07-25T19:43:28.002Z,73.43
2022-07-25T19:45:55.468Z,72.37
2022-07-25T19:48:24.975Z,72.31
2022-07-25T19:50:52.419Z,72.25
2022-07-25T19:53:22.152Z,72.85
2022-07-25T19:55:53.559Z,72.69
2022-07-25T19:58:21.384Z,72.12
2022-07-25T20:00:48.546Z,72.56
2022-07-25T20:03:16.159Z,73.00
2022-07-25T20:05:50.767Z,73.18
2022-07-25T20:08:19.096Z,72.54
2022-07-25T20:10:46.468Z,72.70
2022-07-25T20:13:13.614Z,71.80
2022-07-25T20:15:40.831Z,72.54
2022-07-25T20:18:07.912Z,72.79
2022-07-25T20:20:35.609Z,72.18
2022-07-25T20:23:03.813Z,73.10
2022-07-25T20:25:31.072Z,73.08
2022-07-25T20:27:58.249Z,73.01
2022-07-25T20:30:26.476Z,73.41
2022-07-25T20:32:55.613Z,74.14
2022-07-25T20:35:22.657Z,73.89
2022-07-25T20:37:50.301Z,73.77
2022-07-25T20:40:19.594Z,73.61
2022-07-25T20:42:47.442Z,73.29
2022-07-25T20:45:15.045Z,73.41
2022-07-25T20:47:41.943Z,72.28
2022-07-25T20:50:10.133Z,73.90
2022-07-25T20:52:38.119Z,73.82
2022-07-25T20:55:06.672Z,75.76
2022-07-25T20:57:34.505Z,75.42
2022-07-25T21:00:01.835Z,76.22
2022-07-25T21:02:28.794Z,75.93
2022-07-25T21:04:55.761Z,76.35
2022-07-25T21:07:22.855Z,75.67
2022-07-25T21:09:49.892Z,75.17
2022-07-25T21:12:16.836Z,74.55
2022-07-25T21:14:43.936Z,74.23
2022-07-25T21:17:11.048Z,73.70
2022-07-25T21:19:37.909Z,73.86
2022-07-25T21:22:06.352Z,74.03
2022-07-25T21:24:33.322Z,74.17
2022-07-25T21:27:00.133Z,73.77
2022-07-25T21:29:27.343Z,74.62
2022-07-25T21:31:54.396Z,73.60
2022-07-25T21:34:21.346Z,73.66
2022-07-25T21:36:48.493Z,73.88
2022-07-25T21:39:16.718Z,74.54
2022-07-25T21:41:44.151Z,73.96
2022-07-25T21:44:11.408Z,73.77
2022-07-25T21:46:38.222Z,73.81
2022-07-25T21:49:41.173Z,74.13
2022-07-25T21:52:13.298Z,73.50
2022-07-25T21:54:44.258Z,73.31
2022-07-25T21:57:13.396Z,73.45
2022-07-25T21:59:42.180Z,71.88
2022-07-25T22:02:09.182Z,71.74
2022-07-25T22:04:36.603Z,71.13
2022-07-25T22:07:03.898Z,71.13
2022-07-25T22:09:31.223Z,71.06
2022-07-25T22:11:58.778Z,70.48
2022-07-25T22:14:25.561Z,70.73
2022-07-25T22:16:52.940Z,71.08
2022-07-25T22:19:22.569Z,70.97
2022-07-25T22:21:50.025Z,70.87
2022-07-25T22:24:17.029Z,70.58
2022-07-25T22:26:44.117Z,71.01
2022-07-25T22:29:11.631Z,72.13
2022-07-25T22:31:39.385Z,71.35
2022-07-25T22:34:06.550Z,71.64
2022-07-25T22:36:33.513Z,71.90
2022-07-25T22:39:00.321Z,72.46
2022-07-25T22:41:27.911Z,72.85
2022-07-25T22:43:58.918Z,73.24
2022-07-25T22:46:30.206Z,73.50
2022-07-25T22:48:58.312Z,72.82
2022-07-25T22:51:26.570Z,72.81
2022-07-25T22:53:53.890Z,72.53
2022-07-25T22:56:21.366Z,72.81
2022-07-25T22:58:48.733Z,72.32
2022-07-25T23:01:16.380Z,72.48
2022-07-25T23:03:43.605Z,73.26
2022-07-25T23:06:10.646Z,72.94
2022-07-25T23:08:37.569Z,72.23
2022-07-25T23:11:06.266Z,71.92
2022-07-25T23:13:33.698Z,72.04
2022-07-25T23:16:00.888Z,72.23
2022-07-25T23:18:30.817Z,72.61
2022-07-25T23:20:57.760Z,71.97
2022-07-25T23:23:24.749Z,71.51
2022-07-25T23:25:51.938Z,71.58
2022-07-25T23:28:18.831Z,71.26
2022-07-25T23:30:45.756Z,71.19
2022-07-25T23:33:12.841Z,71.20
2022-07-25T23:35:39.729Z,71.09
2022-07-25T23:38:06.608Z,71.70
2022-07-25T23:40:33.864Z,71.45
2022-07-25T23:43:00.644Z,71.45
2022-07-25T23:45:28.603Z,71.50
2022-07-25T23:47:56.487Z,72.04
2022-07-25T23:50:23.651Z,71.94
2022-07-25T23:52:50.890Z,71.07
2022-07-25T23:55:18.013Z,71.39
2022-07-25T23:57:44.959Z,71.43
